sensor_id;sensor_type;location;lat;lon;timestamp;temperature;humidity
18593;DHT22;9426;54.118;17.948;2022-10-15T00:00:20;7.90;99.90
18593;DHT22;9426;54.118;17.948;2022-10-15T00:05:43;8.00;99.90
18593;DHT22;9426;54.118;17.948;2022-10-15T00:11:09;8.10;99.90
18593;DHT22;9426;54.118;17.948;2022-10-15T00:16:34;8.00;99.90
18593;DHT22;9426;54.118;17.948;2022-10-15T00:21:58;8.00;99.90
18593;DHT22;9426;54.118;17.948;2022-10-15T00:27:27;7.90;99.90
18593;DHT22;9426;54.118;17.948;2022-10-15T00:32:52;7.90;99.90
18593;DHT22;9426;54.118;17.948;2022-10-15T00:38:15;7.90;99.90
18593;DHT22;9426;54.118;17.948;2022-10-15T00:43:41;8.00;99.90
18593;DHT22;9426;54.118;17.948;2022-10-15T00:49:11;8.10;99.90
18593;DHT22;9426;54.118;17.948;2022-10-15T00:54:41;8.10;99.90
18593;DHT22;9426;54.118;17.948;2022-10-15T01:00:09;8.20;99.90
18593;DHT22;9426;54.118;17.948;2022-10-15T01:05:35;8.30;99.90
18593;DHT22;9426;54.118;17.948;2022-10-15T01:11:12;8.40;99.90
18593;DHT22;9426;54.118;17.948;2022-10-15T01:16:41;8.40;99.90
18593;DHT22;9426;54.118;17.948;2022-10-15T01:22:12;8.50;99.90
18593;DHT22;9426;54.118;17.948;2022-10-15T01:27:41;8.60;99.90
18593;DHT22;9426;54.118;17.948;2022-10-15T01:33:21;8.50;99.90
18593;DHT22;9426;54.118;17.948;2022-10-15T01:38:53;8.50;99.90
18593;DHT22;9426;54.118;17.948;2022-10-15T01:44:21;8.50;99.90
18593;DHT22;9426;54.118;17.948;2022-10-15T01:50:10;8.50;99.90
18593;DHT22;9426;54.118;17.948;2022-10-15T01:55:36;8.50;99.90
18593;DHT22;9426;54.118;17.948;2022-10-15T02:01:04;8.40;99.90
18593;DHT22;9426;54.118;17.948;2022-10-15T02:06:35;8.30;99.90
18593;DHT22;9426;54.118;17.948;2022-10-15T02:12:08;8.10;99.90
18593;DHT22;9426;54.118;17.948;2022-10-15T02:17:37;8.00;99.90
18593;DHT22;9426;54.118;17.948;2022-10-15T02:23:06;7.70;99.90
18593;DHT22;9426;54.118;17.948;2022-10-15T02:28:32;7.60;99.90
18593;DHT22;9426;54.118;17.948;2022-10-15T02:34:01;7.50;99.90
18593;DHT22;9426;54.118;17.948;2022-10-15T02:39:27;7.50;99.90
18593;DHT22;9426;54.118;17.948;2022-10-15T02:44:52;7.50;99.90
18593;DHT22;9426;54.118;17.948;2022-10-15T02:50:15;7.60;99.90
18593;DHT22;9426;54.118;17.948;2022-10-15T02:55:40;7.70;99.90
18593;DHT22;9426;54.118;17.948;2022-10-15T03:01:04;7.70;99.90
18593;DHT22;9426;54.118;17.948;2022-10-15T03:06:28;7.70;99.90
18593;DHT22;9426;54.118;17.948;2022-10-15T03:11:53;7.60;99.90
18593;DHT22;9426;54.118;17.948;2022-10-15T03:17:16;7.60;99.90
18593;DHT22;9426;54.118;17.948;2022-10-15T03:22:39;7.60;99.90
18593;DHT22;9426;54.118;17.948;2022-10-15T03:28:05;7.70;99.90
18593;DHT22;9426;54.118;17.948;2022-10-15T03:33:32;7.70;99.90
18593;DHT22;9426;54.118;17.948;2022-10-15T03:38:57;7.70;99.90
18593;DHT22;9426;54.118;17.948;2022-10-15T03:44:21;7.80;99.90
18593;DHT22;9426;54.118;17.948;2022-10-15T03:49:56;7.80;99.90
18593;DHT22;9426;54.118;17.948;2022-10-15T03:55:20;7.80;99.90
18593;DHT22;9426;54.118;17.948;2022-10-15T04:00:45;7.90;99.90
18593;DHT22;9426;54.118;17.948;2022-10-15T04:06:08;7.90;99.90
18593;DHT22;9426;54.118;17.948;2022-10-15T04:11:33;7.90;99.90
18593;DHT22;9426;54.118;17.948;2022-10-15T04:16:59;8.00;99.90
18593;DHT22;9426;54.118;17.948;2022-10-15T04:22:24;8.00;99.90
18593;DHT22;9426;54.118;17.948;2022-10-15T04:27:52;8.00;99.90
18593;DHT22;9426;54.118;17.948;2022-10-15T04:33:17;8.10;99.90
18593;DHT22;9426;54.118;17.948;2022-10-15T04:38:41;8.10;99.90
18593;DHT22;9426;54.118;17.948;2022-10-15T04:44:05;8.20;99.90
18593;DHT22;9426;54.118;17.948;2022-10-15T04:49:29;8.30;99.90
18593;DHT22;9426;54.118;17.948;2022-10-15T04:54:54;8.40;99.90
18593;DHT22;9426;54.118;17.948;2022-10-15T05:00:19;8.50;99.90
18593;DHT22;9426;54.118;17.948;2022-10-15T05:06:04;8.60;99.90
18593;DHT22;9426;54.118;17.948;2022-10-15T05:11:29;8.60;99.90
18593;DHT22;9426;54.118;17.948;2022-10-15T05:16:53;8.70;99.90
18593;DHT22;9426;54.118;17.948;2022-10-15T05:22:18;8.80;99.90
18593;DHT22;9426;54.118;17.948;2022-10-15T05:27:47;8.80;99.90
18593;DHT22;9426;54.118;17.948;2022-10-15T05:33:11;8.90;99.90
18593;DHT22;9426;54.118;17.948;2022-10-15T05:38:37;9.00;99.90
18593;DHT22;9426;54.118;17.948;2022-10-15T05:44:00;9.00;99.90
18593;DHT22;9426;54.118;17.948;2022-10-15T05:49:24;9.00;99.90
18593;DHT22;9426;54.118;17.948;2022-10-15T05:54:57;9.10;99.90
18593;DHT22;9426;54.118;17.948;2022-10-15T06:00:20;9.10;99.90
18593;DHT22;9426;54.118;17.948;2022-10-15T06:05:46;9.10;99.90
18593;DHT22;9426;54.118;17.948;2022-10-15T06:11:10;9.10;99.90
18593;DHT22;9426;54.118;17.948;2022-10-15T06:16:33;9.30;99.90
18593;DHT22;9426;54.118;17.948;2022-10-15T06:21:58;9.40;99.90
18593;DHT22;9426;54.118;17.948;2022-10-15T06:27:23;9.50;99.90
18593;DHT22;9426;54.118;17.948;2022-10-15T06:32:47;9.70;99.90
18593;DHT22;9426;54.118;17.948;2022-10-15T06:38:11;9.80;99.90
18593;DHT22;9426;54.118;17.948;2022-10-15T06:43:36;9.90;99.90
18593;DHT22;9426;54.118;17.948;2022-10-15T06:48:59;10.00;99.90
18593;DHT22;9426;54.118;17.948;2022-10-15T06:54:23;10.20;99.90
18593;DHT22;9426;54.118;17.948;2022-10-15T06:59:48;10.30;99.90
18593;DHT22;9426;54.118;17.948;2022-10-15T07:05:11;10.50;99.90
18593;DHT22;9426;54.118;17.948;2022-10-15T07:10:34;10.60;99.90
18593;DHT22;9426;54.118;17.948;2022-10-15T07:16:02;10.90;99.90
18593;DHT22;9426;54.118;17.948;2022-10-15T07:21:27;11.10;99.90
18593;DHT22;9426;54.118;17.948;2022-10-15T07:26:50;11.40;99.90
18593;DHT22;9426;54.118;17.948;2022-10-15T07:32:15;11.50;99.90
18593;DHT22;9426;54.118;17.948;2022-10-15T07:37:39;11.50;99.90
18593;DHT22;9426;54.118;17.948;2022-10-15T07:43:02;11.60;99.90
18593;DHT22;9426;54.118;17.948;2022-10-15T07:48:28;11.70;99.90
18593;DHT22;9426;54.118;17.948;2022-10-15T07:53:51;11.80;99.90
18593;DHT22;9426;54.118;17.948;2022-10-15T07:59:14;11.90;99.90
18593;DHT22;9426;54.118;17.948;2022-10-15T08:04:39;12.20;99.90
18593;DHT22;9426;54.118;17.948;2022-10-15T08:10:04;12.40;99.90
18593;DHT22;9426;54.118;17.948;2022-10-15T08:15:27;12.70;99.90
18593;DHT22;9426;54.118;17.948;2022-10-15T08:20:52;12.80;99.90
18593;DHT22;9426;54.118;17.948;2022-10-15T08:26:15;12.90;99.90
18593;DHT22;9426;54.118;17.948;2022-10-15T08:31:39;13.10;99.90
18593;DHT22;9426;54.118;17.948;2022-10-15T08:37:04;13.20;99.90
18593;DHT22;9426;54.118;17.948;2022-10-15T08:42:31;13.10;99.90
18593;DHT22;9426;54.118;17.948;2022-10-15T08:47:58;13.00;99.90
18593;DHT22;9426;54.118;17.948;2022-10-15T08:53:27;13.20;99.90
18593;DHT22;9426;54.118;17.948;2022-10-15T08:58:58;13.20;99.90
18593;DHT22;9426;54.118;17.948;2022-10-15T09:04:29;13.00;99.90
18593;DHT22;9426;54.118;17.948;2022-10-15T09:10:04;13.00;99.90
18593;DHT22;9426;54.118;17.948;2022-10-15T09:15:33;12.70;99.90
18593;DHT22;9426;54.118;17.948;2022-10-15T09:20:59;12.60;99.90
18593;DHT22;9426;54.118;17.948;2022-10-15T09:26:28;12.50;99.90
18593;DHT22;9426;54.118;17.948;2022-10-15T09:32:02;12.30;99.90
18593;DHT22;9426;54.118;17.948;2022-10-15T09:37:29;12.10;99.90
18593;DHT22;9426;54.118;17.948;2022-10-15T09:42:58;11.90;99.90
18593;DHT22;9426;54.118;17.948;2022-10-15T09:48:23;11.90;99.90
18593;DHT22;9426;54.118;17.948;2022-10-15T09:53:53;12.00;99.90
18593;DHT22;9426;54.118;17.948;2022-10-15T09:59:21;12.20;99.90
18593;DHT22;9426;54.118;17.948;2022-10-15T10:04:45;12.70;99.90
18593;DHT22;9426;54.118;17.948;2022-10-15T10:10:22;13.10;99.90
18593;DHT22;9426;54.118;17.948;2022-10-15T10:15:50;13.00;99.90
18593;DHT22;9426;54.118;17.948;2022-10-15T10:21:23;13.00;99.90
18593;DHT22;9426;54.118;17.948;2022-10-15T10:26:47;12.80;99.90
18593;DHT22;9426;54.118;17.948;2022-10-15T10:32:19;12.80;99.90
18593;DHT22;9426;54.118;17.948;2022-10-15T10:37:42;12.80;99.90
18593;DHT22;9426;54.118;17.948;2022-10-15T10:43:10;12.90;99.90
18593;DHT22;9426;54.118;17.948;2022-10-15T10:48:40;12.80;99.90
18593;DHT22;9426;54.118;17.948;2022-10-15T10:54:06;12.80;99.90
18593;DHT22;9426;54.118;17.948;2022-10-15T10:59:39;13.00;99.90
18593;DHT22;9426;54.118;17.948;2022-10-15T11:05:07;13.10;99.90
18593;DHT22;9426;54.118;17.948;2022-10-15T11:10:35;13.20;99.90
18593;DHT22;9426;54.118;17.948;2022-10-15T11:16:06;13.10;99.90
18593;DHT22;9426;54.118;17.948;2022-10-15T11:21:41;13.10;99.90
18593;DHT22;9426;54.118;17.948;2022-10-15T11:27:21;13.30;99.90
18593;DHT22;9426;54.118;17.948;2022-10-15T11:32:55;13.50;99.90
18593;DHT22;9426;54.118;17.948;2022-10-15T11:38:32;13.40;99.90
18593;DHT22;9426;54.118;17.948;2022-10-15T11:50:09;13.40;99.90
18593;DHT22;9426;54.118;17.948;2022-10-15T11:55:41;13.60;99.90
18593;DHT22;9426;54.118;17.948;2022-10-15T12:01:11;13.90;99.90
18593;DHT22;9426;54.118;17.948;2022-10-15T12:06:41;14.20;99.90
18593;DHT22;9426;54.118;17.948;2022-10-15T12:12:14;14.00;99.90
18593;DHT22;9426;54.118;17.948;2022-10-15T12:17:44;14.30;99.90
18593;DHT22;9426;54.118;17.948;2022-10-15T12:23:22;14.30;99.90
18593;DHT22;9426;54.118;17.948;2022-10-15T12:28:50;14.00;99.90
18593;DHT22;9426;54.118;17.948;2022-10-15T12:34:39;13.80;99.90
18593;DHT22;9426;54.118;17.948;2022-10-15T12:40:23;13.60;99.90
18593;DHT22;9426;54.118;17.948;2022-10-15T12:45:50;13.60;99.90
18593;DHT22;9426;54.118;17.948;2022-10-15T12:51:36;13.60;99.90
18593;DHT22;9426;54.118;17.948;2022-10-15T13:02:39;13.50;99.90
18593;DHT22;9426;54.118;17.948;2022-10-15T13:08:12;13.40;99.90
18593;DHT22;9426;54.118;17.948;2022-10-15T13:13:42;13.40;99.90
18593;DHT22;9426;54.118;17.948;2022-10-15T13:19:16;13.30;99.90
18593;DHT22;9426;54.118;17.948;2022-10-15T13:24:42;13.30;99.90
18593;DHT22;9426;54.118;17.948;2022-10-15T13:30:13;13.20;99.90
18593;DHT22;9426;54.118;17.948;2022-10-15T13:35:39;13.20;99.90
18593;DHT22;9426;54.118;17.948;2022-10-15T13:41:03;13.10;99.90
18593;DHT22;9426;54.118;17.948;2022-10-15T13:46:29;13.10;99.90
18593;DHT22;9426;54.118;17.948;2022-10-15T13:51:55;13.00;99.90
18593;DHT22;9426;54.118;17.948;2022-10-15T13:57:18;13.00;99.90
18593;DHT22;9426;54.118;17.948;2022-10-15T14:02:41;13.00;99.90
18593;DHT22;9426;54.118;17.948;2022-10-15T14:08:14;13.00;99.90
18593;DHT22;9426;54.118;17.948;2022-10-15T14:13:43;13.10;99.90
18593;DHT22;9426;54.118;17.948;2022-10-15T14:19:09;13.10;99.90
18593;DHT22;9426;54.118;17.948;2022-10-15T14:24:36;13.10;99.90
18593;DHT22;9426;54.118;17.948;2022-10-15T14:30:00;13.00;99.90
18593;DHT22;9426;54.118;17.948;2022-10-15T14:35:28;13.00;99.90
18593;DHT22;9426;54.118;17.948;2022-10-15T14:40:58;13.00;99.90
18593;DHT22;9426;54.118;17.948;2022-10-15T14:46:24;13.00;99.90
18593;DHT22;9426;54.118;17.948;2022-10-15T14:51:53;13.00;99.90
18593;DHT22;9426;54.118;17.948;2022-10-15T14:57:22;12.90;99.90
18593;DHT22;9426;54.118;17.948;2022-10-15T15:02:46;12.90;99.90
18593;DHT22;9426;54.118;17.948;2022-10-15T15:08:10;12.90;99.90
18593;DHT22;9426;54.118;17.948;2022-10-15T15:13:39;12.80;99.90
18593;DHT22;9426;54.118;17.948;2022-10-15T15:19:07;12.80;99.90
18593;DHT22;9426;54.118;17.948;2022-10-15T15:24:30;12.90;99.90
18593;DHT22;9426;54.118;17.948;2022-10-15T15:29:56;12.80;99.90
18593;DHT22;9426;54.118;17.948;2022-10-15T15:35:22;12.80;99.90
18593;DHT22;9426;54.118;17.948;2022-10-15T15:40:46;12.80;99.90
18593;DHT22;9426;54.118;17.948;2022-10-15T15:46:12;12.80;99.90
18593;DHT22;9426;54.118;17.948;2022-10-15T15:51:35;12.80;99.90
18593;DHT22;9426;54.118;17.948;2022-10-15T15:56:59;12.80;99.90
18593;DHT22;9426;54.118;17.948;2022-10-15T16:02:24;12.80;99.90
18593;DHT22;9426;54.118;17.948;2022-10-15T16:07:48;12.80;99.90
18593;DHT22;9426;54.118;17.948;2022-10-15T16:13:12;12.80;99.90
18593;DHT22;9426;54.118;17.948;2022-10-15T16:18:37;12.70;99.90
18593;DHT22;9426;54.118;17.948;2022-10-15T16:24:01;12.70;99.90
18593;DHT22;9426;54.118;17.948;2022-10-15T16:29:25;12.70;99.90
18593;DHT22;9426;54.118;17.948;2022-10-15T16:34:50;12.80;99.90
18593;DHT22;9426;54.118;17.948;2022-10-15T16:40:14;12.70;99.90
18593;DHT22;9426;54.118;17.948;2022-10-15T16:45:38;12.70;99.90
18593;DHT22;9426;54.118;17.948;2022-10-15T16:51:05;12.70;99.90
18593;DHT22;9426;54.118;17.948;2022-10-15T16:56:29;12.80;99.90
18593;DHT22;9426;54.118;17.948;2022-10-15T17:01:53;12.70;99.90
18593;DHT22;9426;54.118;17.948;2022-10-15T17:07:19;12.70;99.90
18593;DHT22;9426;54.118;17.948;2022-10-15T17:12:43;12.80;99.90
18593;DHT22;9426;54.118;17.948;2022-10-15T17:18:06;12.80;99.90
18593;DHT22;9426;54.118;17.948;2022-10-15T17:23:31;12.70;99.90
18593;DHT22;9426;54.118;17.948;2022-10-15T17:28:55;12.70;99.90
18593;DHT22;9426;54.118;17.948;2022-10-15T17:34:19;12.70;99.90
18593;DHT22;9426;54.118;17.948;2022-10-15T17:39:43;12.80;99.90
18593;DHT22;9426;54.118;17.948;2022-10-15T17:45:08;12.70;99.90
18593;DHT22;9426;54.118;17.948;2022-10-15T17:50:32;12.70;99.90
18593;DHT22;9426;54.118;17.948;2022-10-15T17:55:57;12.70;99.90
18593;DHT22;9426;54.118;17.948;2022-10-15T18:01:22;12.70;99.90
18593;DHT22;9426;54.118;17.948;2022-10-15T18:06:48;12.70;99.90
18593;DHT22;9426;54.118;17.948;2022-10-15T18:12:18;12.60;99.90
18593;DHT22;9426;54.118;17.948;2022-10-15T18:17:42;12.50;99.90
18593;DHT22;9426;54.118;17.948;2022-10-15T18:23:06;12.30;99.90
18593;DHT22;9426;54.118;17.948;2022-10-15T18:28:32;12.30;99.90
18593;DHT22;9426;54.118;17.948;2022-10-15T18:33:58;12.20;99.90
18593;DHT22;9426;54.118;17.948;2022-10-15T18:39:21;12.20;99.90
18593;DHT22;9426;54.118;17.948;2022-10-15T18:44:47;12.20;99.90
18593;DHT22;9426;54.118;17.948;2022-10-15T18:50:10;12.20;99.90
18593;DHT22;9426;54.118;17.948;2022-10-15T18:55:34;12.20;99.90
18593;DHT22;9426;54.118;17.948;2022-10-15T19:01:08;12.30;99.90
18593;DHT22;9426;54.118;17.948;2022-10-15T19:06:33;12.30;99.90
18593;DHT22;9426;54.118;17.948;2022-10-15T19:11:57;12.20;99.90
18593;DHT22;9426;54.118;17.948;2022-10-15T19:17:22;12.10;99.90
18593;DHT22;9426;54.118;17.948;2022-10-15T19:22:46;12.00;99.90
18593;DHT22;9426;54.118;17.948;2022-10-15T19:28:09;12.00;99.90
18593;DHT22;9426;54.118;17.948;2022-10-15T19:33:37;12.00;99.90
18593;DHT22;9426;54.118;17.948;2022-10-15T19:39:02;11.90;99.90
18593;DHT22;9426;54.118;17.948;2022-10-15T19:44:27;11.90;99.90
18593;DHT22;9426;54.118;17.948;2022-10-15T19:49:52;11.90;99.90
18593;DHT22;9426;54.118;17.948;2022-10-15T19:55:16;11.70;99.90
18593;DHT22;9426;54.118;17.948;2022-10-15T20:00:47;11.50;99.90
18593;DHT22;9426;54.118;17.948;2022-10-15T20:06:12;11.30;99.90
18593;DHT22;9426;54.118;17.948;2022-10-15T20:11:36;11.40;99.90
18593;DHT22;9426;54.118;17.948;2022-10-15T20:17:00;11.30;99.90
18593;DHT22;9426;54.118;17.948;2022-10-15T20:22:25;11.30;99.90
18593;DHT22;9426;54.118;17.948;2022-10-15T20:27:49;11.20;99.90
18593;DHT22;9426;54.118;17.948;2022-10-15T20:33:13;11.10;99.90
18593;DHT22;9426;54.118;17.948;2022-10-15T20:38:38;11.00;99.90
18593;DHT22;9426;54.118;17.948;2022-10-15T20:44:01;10.80;99.90
18593;DHT22;9426;54.118;17.948;2022-10-15T20:49:27;10.90;99.90
18593;DHT22;9426;54.118;17.948;2022-10-15T20:54:55;10.90;99.90
18593;DHT22;9426;54.118;17.948;2022-10-15T21:00:19;11.00;99.90
18593;DHT22;9426;54.118;17.948;2022-10-15T21:05:42;10.90;99.90
18593;DHT22;9426;54.118;17.948;2022-10-15T21:11:07;11.00;99.90
18593;DHT22;9426;54.118;17.948;2022-10-15T21:16:31;11.10;99.90
18593;DHT22;9426;54.118;17.948;2022-10-15T21:21:55;11.10;99.90
18593;DHT22;9426;54.118;17.948;2022-10-15T21:27:20;11.10;99.90
18593;DHT22;9426;54.118;17.948;2022-10-15T21:32:43;11.10;99.90
18593;DHT22;9426;54.118;17.948;2022-10-15T21:38:06;11.20;99.90
18593;DHT22;9426;54.118;17.948;2022-10-15T21:43:31;11.30;99.90
18593;DHT22;9426;54.118;17.948;2022-10-15T21:48:55;11.50;99.90
18593;DHT22;9426;54.118;17.948;2022-10-15T21:54:18;11.50;99.90
18593;DHT22;9426;54.118;17.948;2022-10-15T21:59:43;11.50;99.90
18593;DHT22;9426;54.118;17.948;2022-10-15T22:05:08;11.60;99.90
18593;DHT22;9426;54.118;17.948;2022-10-15T22:10:32;11.60;99.90
18593;DHT22;9426;54.118;17.948;2022-10-15T22:15:59;11.60;99.90
18593;DHT22;9426;54.118;17.948;2022-10-15T22:21:24;11.60;99.90
18593;DHT22;9426;54.118;17.948;2022-10-15T22:26:48;11.70;99.90
18593;DHT22;9426;54.118;17.948;2022-10-15T22:32:13;11.80;99.90
18593;DHT22;9426;54.118;17.948;2022-10-15T22:37:36;11.80;99.90
18593;DHT22;9426;54.118;17.948;2022-10-15T22:43:01;11.90;99.90
18593;DHT22;9426;54.118;17.948;2022-10-15T22:48:26;12.00;99.90
18593;DHT22;9426;54.118;17.948;2022-10-15T22:53:53;12.00;99.90
18593;DHT22;9426;54.118;17.948;2022-10-15T22:59:17;12.00;99.90
18593;DHT22;9426;54.118;17.948;2022-10-15T23:04:42;12.00;99.90
18593;DHT22;9426;54.118;17.948;2022-10-15T23:10:06;12.10;99.90
18593;DHT22;9426;54.118;17.948;2022-10-15T23:15:29;12.10;99.90
18593;DHT22;9426;54.118;17.948;2022-10-15T23:20:54;12.20;99.90
18593;DHT22;9426;54.118;17.948;2022-10-15T23:26:18;12.20;99.90
18593;DHT22;9426;54.118;17.948;2022-10-15T23:31:41;12.30;99.90
18593;DHT22;9426;54.118;17.948;2022-10-15T23:37:06;12.30;99.90
18593;DHT22;9426;54.118;17.948;2022-10-15T23:42:29;12.40;99.90
18593;DHT22;9426;54.118;17.948;2022-10-15T23:47:54;12.40;99.90
18593;DHT22;9426;54.118;17.948;2022-10-15T23:53:19;12.50;99.90
18593;DHT22;9426;54.118;17.948;2022-10-15T23:58:46;12.50;99.90
